Flight Track Log - Related Links

Times and Time Zones

All times are in EDT time to prevent confusion due to time zone crossing. See the EGF4099 flight status page for this flight to view local times or setup timezone preferences in your user account.

Time Position Orientation Groundspeed Altitude Reporting Facility
EDT Latitude Longitude Course Direction KTS MPH feet Rate Location/Type
Tue 09:13:48 AM 42.0167 -87.9500 270° West 194 223 2,100  Level Chicago TRACON
Tue 09:14:49 AM 42.0667 -88.0000 323° Northwest 255 293 4,300 2,814 Climbing Chicago TRACON
Tue 09:15:00 AM 41.9667 -88.1628 270° West  Level FlightAware Approximate
Tue 09:16:00 AM 41.9667 -88.2943 270° West  Level FlightAware Approximate
Tue 09:17:00 AM 41.9667 -88.4257 270° West  Level FlightAware Approximate
Tue 09:17:02 AM 42.1097 -88.1833 288° West 273 314 11,200  Level Chicago Center
Tue 09:18:00 AM 41.9668 -88.5571 270° West  Level FlightAware Approximate
Tue 09:18:04 AM 42.1061 -88.2931 267° West 291 335 13,000  Level Chicago Center
Tue 09:19:00 AM 41.9668 -88.6702 270° West  Level FlightAware Approximate
Tue 09:19:06 AM 42.1044 -88.4317 269° West 310 357 13,800  Level Chicago Center
Tue 09:20:09 AM 42.0981 -88.5622 266° West 343 395 15,200 1,392 Climbing Chicago Center
Tue 09:21:11 AM 42.0900 -88.7042 266° West 378 435 16,700 1,403 Climbing Chicago Center
Tue 09:22:13 AM 42.0817 -88.8617 266° West 394 453 18,100 1,355 Climbing Chicago Center
Tue 09:23:15 AM 42.0722 -89.0111 265° West 401 461 19,500 1,452 Climbing Chicago Center
Tue 09:24:17 AM 42.0628 -89.1811 266° West 407 468 21,100 1,210 Climbing Chicago Center
Tue 09:25:19 AM 42.0531 -89.3361 265° West 415 478 22,000 435 Climbing Chicago Center
Tue 09:26:21 AM 42.0436 -89.4858 265° West 411 473 22,000  Level Chicago Center
Tue 09:27:23 AM 42.0347 -89.6297 265° West 395 455 22,000  Level Chicago Center
Tue 09:28:25 AM 42.0269 -89.7733 266° West 389 448 22,000  Level Chicago Center
Tue 09:29:27 AM 42.0158 -89.9436 265° West 389 448 22,000  Level Chicago Center
Tue 09:30:29 AM 42.0064 -90.0872 265° West 391 450 22,000  Level Chicago Center
Tue 09:31:31 AM 41.9958 -90.2325 264° West 393 452 22,000 -387 Level Chicago Center
Tue 09:32:33 AM 41.9869 -90.3753 265° West 389 448 21,200 -1,200 Descending Chicago Center
Tue 09:33:36 AM 41.9764 -90.5119 264° West 378 435 19,500 -1,824 Descending Chicago Center
Tue 09:34:38 AM 41.9647 -90.6706 264° West 362 417 17,400 -1,887 Descending Chicago Center
Tue 09:35:40 AM 41.9550 -90.8019 264° West 358 412 15,600 -1,742 Descending Chicago Center
Tue 09:36:42 AM 41.9450 -90.9286 264° West 347 399 13,800 -1,742 Descending Chicago Center
Tue 09:37:44 AM 41.9372 -91.0542 265° West 340 391 12,000 -1,742 Descending Chicago Center
Tue 09:38:46 AM 41.9550 -91.1664 282° West 310 357 10,200 -1,887 Descending Chicago Center
Tue 09:39:48 AM 41.9728 -91.2919 281° West 289 333 8,100 -1,887 Descending Chicago Center
Tue 09:40:50 AM 41.9800 -91.3886 276° West 269 310 6,300 -1,742 Descending Chicago Center
Tue 09:41:52 AM 41.9794 -91.4803 270° West 251 289 4,500 -1,597 Descending Chicago Center
Tue 09:42:54 AM 41.9781 -91.5739 269° West 252 290 3,000 -968 Descending Chicago Center
Tue 09:43:56 AM 41.9772 -91.6481 269° West 199 229 2,500 -242 Descending Chicago Center
Tue 09:44:58 AM 41.9758 -91.7169 268° West 190 219 2,500  Level Chicago Center
Tue 09:46:00 AM 41.9742 -91.8069 269° West 194 223 2,500  Level Chicago Center
Tue 09:47:03 AM 41.9472 -91.8558 233° Southwest 206 237 2,500  Level Chicago Center
Tue 09:48:05 AM 41.8953 -91.8653 188° South 194 223 2,500  Level Chicago Center

Login

Don't have an account? Register now (free) for customized features, flight alerts, and more!